sensor_id;sensor_type;location;lat;lon;timestamp;pressure;altitude;pressure_sealevel;temperature
74060;BMP280;62414;53.436;8.828;2022-09-02T00:00:59;102137.50;;;13.32
74060;BMP280;62414;53.436;8.828;2022-09-02T00:03:25;102146.91;;;13.28
74060;BMP280;62414;53.436;8.828;2022-09-02T00:05:50;102139.09;;;13.30
74060;BMP280;62414;53.436;8.828;2022-09-02T00:08:16;102139.75;;;13.14
74060;BMP280;62414;53.436;8.828;2022-09-02T00:10:43;102129.66;;;13.15
74060;BMP280;62414;53.436;8.828;2022-09-02T00:13:11;102131.94;;;13.16
74060;BMP280;62414;53.436;8.828;2022-09-02T00:15:38;102136.13;;;13.21
74060;BMP280;62414;53.436;8.828;2022-09-02T00:18:04;102134.28;;;13.18
74060;BMP280;62414;53.436;8.828;2022-09-02T00:20:29;102133.88;;;13.19
74060;BMP280;62414;53.436;8.828;2022-09-02T00:22:56;102130.38;;;13.19
74060;BMP280;62414;53.436;8.828;2022-09-02T00:25:21;102128.47;;;13.16
74060;BMP280;62414;53.436;8.828;2022-09-02T00:27:47;102134.31;;;13.14
74060;BMP280;62414;53.436;8.828;2022-09-02T00:30:13;102137.59;;;13.05
74060;BMP280;62414;53.436;8.828;2022-09-02T00:32:40;102125.09;;;13.08
74060;BMP280;62414;53.436;8.828;2022-09-02T00:35:07;102129.75;;;13.07
74060;BMP280;62414;53.436;8.828;2022-09-02T00:37:32;102125.28;;;12.97
74060;BMP280;62414;53.436;8.828;2022-09-02T00:39:58;102135.09;;;12.91
74060;BMP280;62414;53.436;8.828;2022-09-02T00:42:24;102129.69;;;12.88
74060;BMP280;62414;53.436;8.828;2022-09-02T00:44:51;102132.41;;;12.88
74060;BMP280;62414;53.436;8.828;2022-09-02T00:47:17;102129.81;;;12.81
74060;BMP280;62414;53.436;8.828;2022-09-02T00:49:46;102126.78;;;12.75
74060;BMP280;62414;53.436;8.828;2022-09-02T00:52:15;102132.31;;;12.71
74060;BMP280;62414;53.436;8.828;2022-09-02T00:54:44;102132.31;;;12.71
74060;BMP280;62414;53.436;8.828;2022-09-02T00:57:13;102131.63;;;12.64
74060;BMP280;62414;53.436;8.828;2022-09-02T00:59:45;102128.13;;;12.63
74060;BMP280;62414;53.436;8.828;2022-09-02T01:02:13;102123.19;;;12.55
74060;BMP280;62414;53.436;8.828;2022-09-02T01:04:39;102120.97;;;12.50
74060;BMP280;62414;53.436;8.828;2022-09-02T01:07:06;102126.34;;;12.53
74060;BMP280;62414;53.436;8.828;2022-09-02T01:09:32;102117.47;;;12.49
74060;BMP280;62414;53.436;8.828;2022-09-02T01:11:58;102112.53;;;12.40
74060;BMP280;62414;53.436;8.828;2022-09-02T01:14:24;102113.69;;;12.43
74060;BMP280;62414;53.436;8.828;2022-09-02T01:16:51;102108.97;;;12.47
74060;BMP280;62414;53.436;8.828;2022-09-02T01:19:21;102108.59;;;12.45
74060;BMP280;62414;53.436;8.828;2022-09-02T01:21:49;102105.13;;;12.44
74060;BMP280;62414;53.436;8.828;2022-09-02T01:24:16;102108.59;;;12.45
74060;BMP280;62414;53.436;8.828;2022-09-02T01:26:42;102103.91;;;12.45
74060;BMP280;62414;53.436;8.828;2022-09-02T01:29:08;102097.78;;;12.41
74060;BMP280;62414;53.436;8.828;2022-09-02T01:31:34;102094.28;;;12.41
74060;BMP280;62414;53.436;8.828;2022-09-02T01:34:00;102099.84;;;12.34
74060;BMP280;62414;53.436;8.828;2022-09-02T01:36:25;102095.84;;;12.42
74060;BMP280;62414;53.436;8.828;2022-09-02T01:38:52;102095.59;;;12.33
74060;BMP280;62414;53.436;8.828;2022-09-02T01:41:17;102095.66;;;12.26
74060;BMP280;62414;53.436;8.828;2022-09-02T01:43:43;102096.81;;;12.28
74060;BMP280;62414;53.436;8.828;2022-09-02T01:46:08;102095.34;;;12.24
74060;BMP280;62414;53.436;8.828;2022-09-02T01:48:35;102100.22;;;12.32
74060;BMP280;62414;53.436;8.828;2022-09-02T01:51:02;102095.94;;;12.35
74060;BMP280;62414;53.436;8.828;2022-09-02T01:53:28;102092.03;;;12.36
74060;BMP280;62414;53.436;8.828;2022-09-02T01:55:55;102088.59;;;12.32
74060;BMP280;62414;53.436;8.828;2022-09-02T01:58:22;102087.88;;;12.28
74060;BMP280;62414;53.436;8.828;2022-09-02T02:00:48;102088.69;;;12.28
74060;BMP280;62414;53.436;8.828;2022-09-02T02:03:14;102084.34;;;12.31
74060;BMP280;62414;53.436;8.828;2022-09-02T02:05:40;102083.28;;;12.25
74060;BMP280;62414;53.436;8.828;2022-09-02T02:08:07;102082.50;;;12.24
74060;BMP280;62414;53.436;8.828;2022-09-02T02:10:33;102080.63;;;12.21
74060;BMP280;62414;53.436;8.828;2022-09-02T02:13:00;102077.91;;;12.21
74060;BMP280;62414;53.436;8.828;2022-09-02T02:15:30;102080.63;;;12.18
74060;BMP280;62414;53.436;8.828;2022-09-02T02:17:55;102079.84;;;12.21
74060;BMP280;62414;53.436;8.828;2022-09-02T02:20:21;102082.16;;;12.22
74060;BMP280;62414;53.436;8.828;2022-09-02T02:22:47;102087.22;;;12.20
74060;BMP280;62414;53.436;8.828;2022-09-02T02:25:13;102082.63;;;12.13
74060;BMP280;62414;53.436;8.828;2022-09-02T02:27:40;102088.06;;;12.13
74060;BMP280;62414;53.436;8.828;2022-09-02T02:30:09;102078.47;;;12.09
74060;BMP280;62414;53.436;8.828;2022-09-02T02:32:35;102076.91;;;12.08
74060;BMP280;62414;53.436;8.828;2022-09-02T02:35:01;102079.63;;;12.08
74060;BMP280;62414;53.436;8.828;2022-09-02T02:37:27;102082.38;;;12.04
74060;BMP280;62414;53.436;8.828;2022-09-02T02:39:52;102075.84;;;12.02
74060;BMP280;62414;53.436;8.828;2022-09-02T02:42:18;102081.69;;;12.00
74060;BMP280;62414;53.436;8.828;2022-09-02T02:44:45;102075.06;;;12.01
74060;BMP280;62414;53.436;8.828;2022-09-02T02:47:12;102075.84;;;11.98
74060;BMP280;62414;53.436;8.828;2022-09-02T02:49:41;102070.22;;;11.85
74060;BMP280;62414;53.436;8.828;2022-09-02T02:52:07;102076.41;;;11.86
74060;BMP280;62414;53.436;8.828;2022-09-02T02:54:33;102070.16;;;11.89
74060;BMP280;62414;53.436;8.828;2022-09-02T02:56:59;102066.34;;;11.87
74060;BMP280;62414;53.436;8.828;2022-09-02T02:59:25;102064.81;;;11.82
74060;BMP280;62414;53.436;8.828;2022-09-02T03:01:51;102062.47;;;11.84
74060;BMP280;62414;53.436;8.828;2022-09-02T03:04:18;102065.19;;;11.84
74060;BMP280;62414;53.436;8.828;2022-09-02T03:06:44;102064.41;;;11.83
74060;BMP280;62414;53.436;8.828;2022-09-02T03:09:10;102062.16;;;11.78
74060;BMP280;62414;53.436;8.828;2022-09-02T03:11:36;102058.28;;;11.79
74060;BMP280;62414;53.436;8.828;2022-09-02T03:14:02;102063.28;;;11.81
74060;BMP280;62414;53.436;8.828;2022-09-02T03:16:28;102062.94;;;11.79
74060;BMP280;62414;53.436;8.828;2022-09-02T03:18:53;102066.06;;;11.77
74060;BMP280;62414;53.436;8.828;2022-09-02T03:21:20;102055.59;;;11.76
74060;BMP280;62414;53.436;8.828;2022-09-02T03:23:46;102057.94;;;11.74
74060;BMP280;62414;53.436;8.828;2022-09-02T03:26:15;102053.28;;;11.74
74060;BMP280;62414;53.436;8.828;2022-09-02T03:28:42;102051.72;;;11.73
74060;BMP280;62414;53.436;8.828;2022-09-02T03:31:12;102057.53;;;11.75
74060;BMP280;62414;53.436;8.828;2022-09-02T03:33:39;102055.22;;;11.74
74060;BMP280;62414;53.436;8.828;2022-09-02T03:36:05;102048.63;;;11.75
74060;BMP280;62414;53.436;8.828;2022-09-02T03:38:33;102050.22;;;11.72
74060;BMP280;62414;53.436;8.828;2022-09-02T03:40:59;102046.00;;;11.68
74060;BMP280;62414;53.436;8.828;2022-09-02T03:43:24;102046.34;;;11.70
74060;BMP280;62414;53.436;8.828;2022-09-02T03:45:50;102040.63;;;11.64
74060;BMP280;62414;53.436;8.828;2022-09-02T03:48:16;102035.53;;;11.66
74060;BMP280;62414;53.436;8.828;2022-09-02T03:50:43;102042.13;;;11.65
74060;BMP280;62414;53.436;8.828;2022-09-02T03:53:14;102039.09;;;11.63
74060;BMP280;62414;53.436;8.828;2022-09-02T03:55:41;102049.16;;;11.63
74060;BMP280;62414;53.436;8.828;2022-09-02T03:58:06;102045.72;;;11.59
74060;BMP280;62414;53.436;8.828;2022-09-02T04:00:34;102051.13;;;11.59
74060;BMP280;62414;53.436;8.828;2022-09-02T04:03:02;102041.50;;;11.58
74060;BMP280;62414;53.436;8.828;2022-09-02T04:05:29;102042.28;;;11.54
74060;BMP280;62414;53.436;8.828;2022-09-02T04:07:57;102045.00;;;11.51
74060;BMP280;62414;53.436;8.828;2022-09-02T04:10:23;102040.03;;;11.46
74060;BMP280;62414;53.436;8.828;2022-09-02T04:12:51;102037.38;;;11.42
74060;BMP280;62414;53.436;8.828;2022-09-02T04:15:18;102040.91;;;11.39
74060;BMP280;62414;53.436;8.828;2022-09-02T04:17:43;102038.19;;;11.36
74060;BMP280;62414;53.436;8.828;2022-09-02T04:20:12;102036.66;;;11.38
74060;BMP280;62414;53.436;8.828;2022-09-02T04:22:37;102040.91;;;11.39
74060;BMP280;62414;53.436;8.828;2022-09-02T04:25:05;102035.84;;;11.38
74060;BMP280;62414;53.436;8.828;2022-09-02T04:27:31;102032.44;;;11.34
74060;BMP280;62414;53.436;8.828;2022-09-02T04:29:58;102035.50;;;11.36
74060;BMP280;62414;53.436;8.828;2022-09-02T04:32:25;102030.06;;;11.36
74060;BMP280;62414;53.436;8.828;2022-09-02T04:34:51;102037.47;;;11.35
74060;BMP280;62414;53.436;8.828;2022-09-02T04:37:17;102034.72;;;11.39
74060;BMP280;62414;53.436;8.828;2022-09-02T04:39:43;102036.66;;;11.38
74060;BMP280;62414;53.436;8.828;2022-09-02T04:42:09;102033.13;;;11.38
74060;BMP280;62414;53.436;8.828;2022-09-02T04:44:35;102029.31;;;11.35
74060;BMP280;62414;53.436;8.828;2022-09-02T04:47:02;102028.50;;;11.38
74060;BMP280;62414;53.436;8.828;2022-09-02T04:49:28;102028.88;;;11.40
74060;BMP280;62414;53.436;8.828;2022-09-02T04:51:53;102030.41;;;11.41
74060;BMP280;62414;53.436;8.828;2022-09-02T04:54:20;102025.00;;;11.38
74060;BMP280;62414;53.436;8.828;2022-09-02T04:56:48;102033.13;;;11.41
74060;BMP280;62414;53.436;8.828;2022-09-02T04:59:14;102031.22;;;11.38
74060;BMP280;62414;53.436;8.828;2022-09-02T05:01:47;102037.00;;;11.40
74060;BMP280;62414;53.436;8.828;2022-09-02T05:04:19;102032.31;;;11.44
74060;BMP280;62414;53.436;8.828;2022-09-02T05:06:48;102031.53;;;11.44
74060;BMP280;62414;53.436;8.828;2022-09-02T05:09:17;102041.97;;;11.45
74060;BMP280;62414;53.436;8.828;2022-09-02T05:11:46;102039.25;;;11.49
74060;BMP280;62414;53.436;8.828;2022-09-02T05:14:12;102036.50;;;11.52
74060;BMP280;62414;53.436;8.828;2022-09-02T05:16:38;102036.44;;;11.56
74060;BMP280;62414;53.436;8.828;2022-09-02T05:19:07;102043.44;;;11.57
74060;BMP280;62414;53.436;8.828;2022-09-02T05:21:40;102040.28;;;11.59
74060;BMP280;62414;53.436;8.828;2022-09-02T05:24:06;102039.41;;;11.65
74060;BMP280;62414;53.436;8.828;2022-09-02T05:26:31;102038.63;;;11.68
74060;BMP280;62414;53.436;8.828;2022-09-02T05:28:58;102035.91;;;11.68
74060;BMP280;62414;53.436;8.828;2022-09-02T05:31:23;102037.84;;;11.71
74060;BMP280;62414;53.436;8.828;2022-09-02T05:33:49;102026.53;;;11.76
74060;BMP280;62414;53.436;8.828;2022-09-02T05:36:21;102030.66;;;11.84
74060;BMP280;62414;53.436;8.828;2022-09-02T05:38:49;102032.91;;;11.90
74060;BMP280;62414;53.436;8.828;2022-09-02T05:41:16;102033.19;;;11.99
74060;BMP280;62414;53.436;8.828;2022-09-02T05:43:43;102028.88;;;12.05
74060;BMP280;62414;53.436;8.828;2022-09-02T05:46:12;102032.63;;;12.14
74060;BMP280;62414;53.436;8.828;2022-09-02T05:48:38;102029.03;;;12.21
74060;BMP280;62414;53.436;8.828;2022-09-02T05:51:04;102036.28;;;12.28
74060;BMP280;62414;53.436;8.828;2022-09-02T05:53:31;102026.81;;;12.39
74060;BMP280;62414;53.436;8.828;2022-09-02T05:56:02;102038.34;;;12.47
74060;BMP280;62414;53.436;8.828;2022-09-02T05:58:28;102038.22;;;12.54
74060;BMP280;62414;53.436;8.828;2022-09-02T06:00:54;102029.16;;;12.64
74060;BMP280;62414;53.436;8.828;2022-09-02T06:03:20;102036.81;;;12.69
74060;BMP280;62414;53.436;8.828;2022-09-02T06:05:53;102028.19;;;12.74
74060;BMP280;62414;53.436;8.828;2022-09-02T06:08:20;102028.06;;;12.82
74060;BMP280;62414;53.436;8.828;2022-09-02T06:10:46;102033.69;;;12.94
74060;BMP280;62414;53.436;8.828;2022-09-02T06:13:17;102026.13;;;13.05
74060;BMP280;62414;53.436;8.828;2022-09-02T06:15:42;102030.56;;;13.16
74060;BMP280;62414;53.436;8.828;2022-09-02T06:18:08;102036.16;;;13.28
74060;BMP280;62414;53.436;8.828;2022-09-02T06:20:33;102029.69;;;13.42
74060;BMP280;62414;53.436;8.828;2022-09-02T06:23:00;102031.00;;;13.54
74060;BMP280;62414;53.436;8.828;2022-09-02T06:25:26;102038.19;;;13.64
74060;BMP280;62414;53.436;8.828;2022-09-02T06:27:51;102041.09;;;13.73
74060;BMP280;62414;53.436;8.828;2022-09-02T06:30:18;102031.19;;;13.83
74060;BMP280;62414;53.436;8.828;2022-09-02T06:32:43;102040.53;;;13.98
74060;BMP280;62414;53.436;8.828;2022-09-02T06:35:09;102034.53;;;14.07
74060;BMP280;62414;53.436;8.828;2022-09-02T06:37:36;102030.91;;;14.13
74060;BMP280;62414;53.436;8.828;2022-09-02T06:40:03;102039.16;;;14.26
74060;BMP280;62414;53.436;8.828;2022-09-02T06:42:30;102031.75;;;14.26
74060;BMP280;62414;53.436;8.828;2022-09-02T06:45:14;102030.63;;;14.40
74060;BMP280;62414;53.436;8.828;2022-09-02T06:47:43;102038.88;;;14.53
74060;BMP280;62414;53.436;8.828;2022-09-02T06:50:09;102034.38;;;14.63
74060;BMP280;62414;53.436;8.828;2022-09-02T06:52:34;102036.91;;;14.70
74060;BMP280;62414;53.436;8.828;2022-09-02T06:55:00;102034.34;;;14.79
74060;BMP280;62414;53.436;8.828;2022-09-02T06:57:26;102034.06;;;14.89
74060;BMP280;62414;53.436;8.828;2022-09-02T06:59:51;102029.31;;;15.06
74060;BMP280;62414;53.436;8.828;2022-09-02T07:02:19;102031.00;;;15.16
74060;BMP280;62414;53.436;8.828;2022-09-02T07:04:47;102027.75;;;15.22
74060;BMP280;62414;53.436;8.828;2022-09-02T07:07:16;102029.28;;;15.35
74060;BMP280;62414;53.436;8.828;2022-09-02T07:09:49;102029.41;;;15.44
74060;BMP280;62414;53.436;8.828;2022-09-02T07:12:16;102019.28;;;15.45
74060;BMP280;62414;53.436;8.828;2022-09-02T07:14:49;102032.94;;;15.58
74060;BMP280;62414;53.436;8.828;2022-09-02T07:17:20;102024.66;;;15.74
74060;BMP280;62414;53.436;8.828;2022-09-02T07:19:49;102018.41;;;15.86
74060;BMP280;62414;53.436;8.828;2022-09-02T07:22:15;102024.34;;;15.97
74060;BMP280;62414;53.436;8.828;2022-09-02T07:24:42;102019.94;;;16.12
74060;BMP280;62414;53.436;8.828;2022-09-02T07:27:08;102015.78;;;16.08
74060;BMP280;62414;53.436;8.828;2022-09-02T07:29:34;102021.34;;;16.17
74060;BMP280;62414;53.436;8.828;2022-09-02T07:32:00;102015.06;;;16.29
74060;BMP280;62414;53.436;8.828;2022-09-02T07:34:27;102018.81;;;16.35
74060;BMP280;62414;53.436;8.828;2022-09-02T07:36:54;102016.75;;;16.49
74060;BMP280;62414;53.436;8.828;2022-09-02T07:39:21;102008.53;;;16.61
74060;BMP280;62414;53.436;8.828;2022-09-02T07:41:49;102015.19;;;16.73
74060;BMP280;62414;53.436;8.828;2022-09-02T07:44:17;102017.41;;;16.87
74060;BMP280;62414;53.436;8.828;2022-09-02T07:46:43;102013.94;;;16.96
74060;BMP280;62414;53.436;8.828;2022-09-02T07:49:11;102011.84;;;17.00
74060;BMP280;62414;53.436;8.828;2022-09-02T07:51:40;102008.16;;;17.16
74060;BMP280;62414;53.436;8.828;2022-09-02T07:54:09;102008.81;;;17.29
74060;BMP280;62414;53.436;8.828;2022-09-02T07:56:35;102015.00;;;17.51
74060;BMP280;62414;53.436;8.828;2022-09-02T07:59:02;102012.03;;;17.58
74060;BMP280;62414;53.436;8.828;2022-09-02T08:01:29;102011.88;;;17.71
74060;BMP280;62414;53.436;8.828;2022-09-02T08:03:55;102013.88;;;17.80
74060;BMP280;62414;53.436;8.828;2022-09-02T08:06:26;102010.25;;;17.83
74060;BMP280;62414;53.436;8.828;2022-09-02T08:08:51;102017.28;;;17.93
74060;BMP280;62414;53.436;8.828;2022-09-02T08:11:18;102023.09;;;18.13
74060;BMP280;62414;53.436;8.828;2022-09-02T08:13:44;102017.47;;;18.17
74060;BMP280;62414;53.436;8.828;2022-09-02T08:16:10;102013.66;;;18.23
74060;BMP280;62414;53.436;8.828;2022-09-02T08:18:35;102011.41;;;18.40
74060;BMP280;62414;53.436;8.828;2022-09-02T08:21:00;102008.31;;;18.47
74060;BMP280;62414;53.436;8.828;2022-09-02T08:23:26;102016.41;;;18.51
74060;BMP280;62414;53.436;8.828;2022-09-02T08:25:51;101997.66;;;18.67
74060;BMP280;62414;53.436;8.828;2022-09-02T08:28:18;102008.19;;;18.69
74060;BMP280;62414;53.436;8.828;2022-09-02T08:30:43;102007.66;;;18.89
74060;BMP280;62414;53.436;8.828;2022-09-02T08:33:09;102005.88;;;18.86
74060;BMP280;62414;53.436;8.828;2022-09-02T08:35:34;102006.59;;;19.05
74060;BMP280;62414;53.436;8.828;2022-09-02T08:38:00;102006.56;;;19.14
74060;BMP280;62414;53.436;8.828;2022-09-02T08:40:33;102008.03;;;19.24
74060;BMP280;62414;53.436;8.828;2022-09-02T08:43:00;102004.16;;;19.40
74060;BMP280;62414;53.436;8.828;2022-09-02T08:45:31;101992.19;;;19.52
74060;BMP280;62414;53.436;8.828;2022-09-02T08:48:03;101990.28;;;19.67
74060;BMP280;62414;53.436;8.828;2022-09-02T08:50:30;101987.00;;;19.78
74060;BMP280;62414;53.436;8.828;2022-09-02T08:53:02;101990.25;;;19.91
74060;BMP280;62414;53.436;8.828;2022-09-02T08:55:34;101981.88;;;19.94
74060;BMP280;62414;53.436;8.828;2022-09-02T08:58:00;101992.25;;;20.14
74060;BMP280;62414;53.436;8.828;2022-09-02T09:00:27;101980.59;;;20.34
74060;BMP280;62414;53.436;8.828;2022-09-02T09:03:01;101982.28;;;20.31
74060;BMP280;62414;53.436;8.828;2022-09-02T09:05:35;101976.16;;;20.37
74060;BMP280;62414;53.436;8.828;2022-09-02T09:08:07;101976.81;;;20.46
74060;BMP280;62414;53.436;8.828;2022-09-02T09:10:37;101979.75;;;20.43
74060;BMP280;62414;53.436;8.828;2022-09-02T09:13:27;101971.13;;;20.50
74060;BMP280;62414;53.436;8.828;2022-09-02T09:16:06;101971.91;;;20.65
74060;BMP280;62414;53.436;8.828;2022-09-02T09:18:37;101969.81;;;20.75
74060;BMP280;62414;53.436;8.828;2022-09-02T09:21:03;101966.53;;;20.91
74060;BMP280;62414;53.436;8.828;2022-09-02T09:23:30;101961.00;;;21.06
74060;BMP280;62414;53.436;8.828;2022-09-02T09:26:04;101971.59;;;21.27
74060;BMP280;62414;53.436;8.828;2022-09-02T09:28:31;101954.63;;;21.34
74060;BMP280;62414;53.436;8.828;2022-09-02T09:31:02;101953.00;;;21.43
74060;BMP280;62414;53.436;8.828;2022-09-02T09:33:28;101953.94;;;21.40
74060;BMP280;62414;53.436;8.828;2022-09-02T09:35:54;101946.03;;;21.47
74060;BMP280;62414;53.436;8.828;2022-09-02T09:38:27;101941.72;;;21.61
74060;BMP280;62414;53.436;8.828;2022-09-02T09:41:09;101939.19;;;21.63
74060;BMP280;62414;53.436;8.828;2022-09-02T09:43:35;101932.44;;;21.64
74060;BMP280;62414;53.436;8.828;2022-09-02T09:46:20;101934.56;;;21.69
74060;BMP280;62414;53.436;8.828;2022-09-02T09:48:49;101937.06;;;21.73
74060;BMP280;62414;53.436;8.828;2022-09-02T09:51:14;101928.47;;;21.91
74060;BMP280;62414;53.436;8.828;2022-09-02T09:53:40;101933.19;;;22.11
74060;BMP280;62414;53.436;8.828;2022-09-02T09:56:07;101924.41;;;21.86
74060;BMP280;62414;53.436;8.828;2022-09-02T09:58:47;101919.31;;;21.99
74060;BMP280;62414;53.436;8.828;2022-09-02T10:01:16;101921.41;;;22.10
74060;BMP280;62414;53.436;8.828;2022-09-02T10:03:48;101918.34;;;22.02
74060;BMP280;62414;53.436;8.828;2022-09-02T10:06:20;101920.97;;;22.17
74060;BMP280;62414;53.436;8.828;2022-09-02T10:08:53;101918.66;;;22.42
74060;BMP280;62414;53.436;8.828;2022-09-02T10:11:22;101914.28;;;22.55
74060;BMP280;62414;53.436;8.828;2022-09-02T10:13:48;101912.28;;;22.61
74060;BMP280;62414;53.436;8.828;2022-09-02T10:16:20;101916.66;;;22.79
74060;BMP280;62414;53.436;8.828;2022-09-02T10:18:53;101915.63;;;22.77
74060;BMP280;62414;53.436;8.828;2022-09-02T10:21:38;101911.41;;;22.87
74060;BMP280;62414;53.436;8.828;2022-09-02T10:24:15;101899.63;;;22.86
74060;BMP280;62414;53.436;8.828;2022-09-02T10:26:51;101904.53;;;23.08
74060;BMP280;62414;53.436;8.828;2022-09-02T10:29:40;101892.22;;;23.15
74060;BMP280;62414;53.436;8.828;2022-09-02T10:34:57;101889.53;;;23.26
74060;BMP280;62414;53.436;8.828;2022-09-02T10:37:30;101881.50;;;23.33
74060;BMP280;62414;53.436;8.828;2022-09-02T10:40:11;101887.75;;;23.23
74060;BMP280;62414;53.436;8.828;2022-09-02T10:42:50;101880.63;;;22.99
74060;BMP280;62414;53.436;8.828;2022-09-02T10:47:57;101863.53;;;22.95
74060;BMP280;62414;53.436;8.828;2022-09-02T10:50:36;101868.25;;;22.84
74060;BMP280;62414;53.436;8.828;2022-09-02T10:53:16;101863.28;;;22.99
74060;BMP280;62414;53.436;8.828;2022-09-02T10:55:50;101869.88;;;23.13
74060;BMP280;62414;53.436;8.828;2022-09-02T10:58:18;101866.03;;;22.93
74060;BMP280;62414;53.436;8.828;2022-09-02T11:00:49;101871.00;;;22.78
74060;BMP280;62414;53.436;8.828;2022-09-02T11:03:20;101866.09;;;23.10
74060;BMP280;62414;53.436;8.828;2022-09-02T11:05:51;101860.47;;;23.69
74060;BMP280;62414;53.436;8.828;2022-09-02T11:08:21;101856.66;;;23.61
74060;BMP280;62414;53.436;8.828;2022-09-02T11:10:55;101844.28;;;23.29
74060;BMP280;62414;53.436;8.828;2022-09-02T11:13:27;101856.09;;;23.18
74060;BMP280;62414;53.436;8.828;2022-09-02T11:16:01;101843.63;;;23.56
74060;BMP280;62414;53.436;8.828;2022-09-02T11:18:32;101852.19;;;23.75
74060;BMP280;62414;53.436;8.828;2022-09-02T11:21:04;101851.41;;;24.25
74060;BMP280;62414;53.436;8.828;2022-09-02T11:23:34;101840.44;;;24.66
74060;BMP280;62414;53.436;8.828;2022-09-02T11:26:03;101835.22;;;25.03
74060;BMP280;62414;53.436;8.828;2022-09-02T11:28:38;101845.91;;;25.65
74060;BMP280;62414;53.436;8.828;2022-09-02T11:31:09;101844.94;;;25.62
74060;BMP280;62414;53.436;8.828;2022-09-02T11:33:45;101841.81;;;25.47
74060;BMP280;62414;53.436;8.828;2022-09-02T11:36:15;101826.28;;;25.27
74060;BMP280;62414;53.436;8.828;2022-09-02T11:38:44;101843.75;;;25.52
74060;BMP280;62414;53.436;8.828;2022-09-02T11:41:25;101844.78;;;25.84
74060;BMP280;62414;53.436;8.828;2022-09-02T11:43:54;101847.50;;;26.14
74060;BMP280;62414;53.436;8.828;2022-09-02T11:46:39;101847.97;;;26.61
74060;BMP280;62414;53.436;8.828;2022-09-02T11:49:23;101841.31;;;25.73
74060;BMP280;62414;53.436;8.828;2022-09-02T11:52:04;101828.03;;;25.30
74060;BMP280;62414;53.436;8.828;2022-09-02T11:54:35;101819.47;;;25.34
74060;BMP280;62414;53.436;8.828;2022-09-02T11:57:04;101816.81;;;25.11
74060;BMP280;62414;53.436;8.828;2022-09-02T12:00:03;101817.69;;;24.95
74060;BMP280;62414;53.436;8.828;2022-09-02T12:02:40;101816.88;;;25.00
74060;BMP280;62414;53.436;8.828;2022-09-02T12:24:05;101790.16;;;28.22
74060;BMP280;62414;53.436;8.828;2022-09-02T12:29:42;101787.81;;;26.64
74060;BMP280;62414;53.436;8.828;2022-09-02T12:32:07;101792.22;;;26.35
74060;BMP280;62414;53.436;8.828;2022-09-02T12:34:52;101795.16;;;26.99
74060;BMP280;62414;53.436;8.828;2022-09-02T12:37:51;101786.16;;;27.83
74060;BMP280;62414;53.436;8.828;2022-09-02T12:40:27;101791.09;;;28.71
74060;BMP280;62414;53.436;8.828;2022-09-02T12:42:55;101781.84;;;29.18
74060;BMP280;62414;53.436;8.828;2022-09-02T12:45:25;101779.16;;;29.90
74060;BMP280;62414;53.436;8.828;2022-09-02T12:47:57;101790.03;;;30.67
74060;BMP280;62414;53.436;8.828;2022-09-02T12:50:26;101781.28;;;30.12
74060;BMP280;62414;53.436;8.828;2022-09-02T12:53:07;101769.97;;;30.25
74060;BMP280;62414;53.436;8.828;2022-09-02T12:55:34;101761.94;;;29.42
74060;BMP280;62414;53.436;8.828;2022-09-02T12:58:07;101763.78;;;28.90
74060;BMP280;62414;53.436;8.828;2022-09-02T13:00:37;101769.19;;;29.38
74060;BMP280;62414;53.436;8.828;2022-09-02T13:03:27;101756.16;;;28.70
74060;BMP280;62414;53.436;8.828;2022-09-02T13:06:00;101763.53;;;28.47
74060;BMP280;62414;53.436;8.828;2022-09-02T13:11:51;101754.75;;;27.96
74060;BMP280;62414;53.436;8.828;2022-09-02T13:14:37;101760.44;;;27.51
74060;BMP280;62414;53.436;8.828;2022-09-02T13:17:20;101764.19;;;27.08
74060;BMP280;62414;53.436;8.828;2022-09-02T13:19:59;101761.50;;;28.47
74060;BMP280;62414;53.436;8.828;2022-09-02T13:22:47;101754.00;;;30.33
74060;BMP280;62414;53.436;8.828;2022-09-02T13:25:55;101750.09;;;31.20
74060;BMP280;62414;53.436;8.828;2022-09-02T13:28:48;101734.06;;;31.13
74060;BMP280;62414;53.436;8.828;2022-09-02T13:31:19;101736.25;;;29.08
74060;BMP280;62414;53.436;8.828;2022-09-02T13:33:44;101734.56;;;30.20
74060;BMP280;62414;53.436;8.828;2022-09-02T13:36:10;101740.38;;;30.22
74060;BMP280;62414;53.436;8.828;2022-09-02T13:38:43;101733.06;;;29.32
74060;BMP280;62414;53.436;8.828;2022-09-02T13:41:08;101726.88;;;28.77
74060;BMP280;62414;53.436;8.828;2022-09-02T13:43:35;101731.84;;;30.28
74060;BMP280;62414;53.436;8.828;2022-09-02T13:46:01;101719.38;;;33.09
74060;BMP280;62414;53.436;8.828;2022-09-02T13:48:29;101713.59;;;34.50
74060;BMP280;62414;53.436;8.828;2022-09-02T13:50:56;101719.69;;;35.24
74060;BMP280;62414;53.436;8.828;2022-09-02T13:53:26;101715.59;;;34.96
74060;BMP280;62414;53.436;8.828;2022-09-02T13:55:54;101720.75;;;35.19
74060;BMP280;62414;53.436;8.828;2022-09-02T13:58:31;101708.47;;;35.05
74060;BMP280;62414;53.436;8.828;2022-09-02T14:01:18;101727.28;;;35.02
74060;BMP280;62414;53.436;8.828;2022-09-02T14:03:45;101713.09;;;35.50
74060;BMP280;62414;53.436;8.828;2022-09-02T14:06:10;101716.59;;;35.79
74060;BMP280;62414;53.436;8.828;2022-09-02T14:08:36;101699.50;;;37.05
74060;BMP280;62414;53.436;8.828;2022-09-02T14:11:04;101702.16;;;37.36
74060;BMP280;62414;53.436;8.828;2022-09-02T14:13:30;101701.19;;;37.54
74060;BMP280;62414;53.436;8.828;2022-09-02T14:16:24;101684.38;;;36.89
74060;BMP280;62414;53.436;8.828;2022-09-02T14:19:05;101695.78;;;34.19
74060;BMP280;62414;53.436;8.828;2022-09-02T14:21:31;101693.63;;;35.14
74060;BMP280;62414;53.436;8.828;2022-09-02T14:23:57;101687.59;;;36.95
74060;BMP280;62414;53.436;8.828;2022-09-02T14:26:26;101688.06;;;37.82
74060;BMP280;62414;53.436;8.828;2022-09-02T14:28:53;101680.56;;;36.63
74060;BMP280;62414;53.436;8.828;2022-09-02T14:31:24;101686.91;;;37.87
74060;BMP280;62414;53.436;8.828;2022-09-02T14:33:50;101683.38;;;38.24
74060;BMP280;62414;53.436;8.828;2022-09-02T14:36:31;101678.00;;;38.53
74060;BMP280;62414;53.436;8.828;2022-09-02T14:39:11;101674.28;;;39.01